JST475 YMML-YWLM
Flight info
| Callsign | JST475 |
|---|---|
| Flight time | 1h 8m |
| Altitude | 37000 |
| Route | DOSEL2/34 DOSEL Y59 TESAT H252 EKIPU DCT WLM |
| Aircraft | A320/M-SDE3FGHIRWY/LB1 |
Departure
| Time | 2026-05-04 07:46 |
|---|---|
| Airport | Melbourne Airport (YMML) |
Arrival
| Time | 2026-05-04 08:54 |
|---|---|
| Airport | Newcastle Airport (YWLM) |
| Time | Latitude | Longitude | Altitude | Speed | Heading |
|---|---|---|---|---|---|
| 2026-05-04 07:08 | -37.67625 | 144.84752 | 377 ft | 0 kts | 351° |
| 2026-05-04 07:38 | -37.67651 | 144.84782 | 376 ft | 0 kts | 209° |
| 2026-05-04 07:38 | -37.67666 | 144.84774 | 375 ft | 3 kts | 186° |
| 2026-05-04 07:38 | -37.67686 | 144.84776 | 374 ft | 3 kts | 174° |
| 2026-05-04 07:38 | -37.67705 | 144.84779 | 373 ft | 3 kts | 174° |
| 2026-05-04 07:39 | -37.67723 | 144.84772 | 372 ft | 3 kts | 211° |
| 2026-05-04 07:39 | -37.67730 | 144.84753 | 372 ft | 3 kts | 258° |
| 2026-05-04 07:39 | -37.67727 | 144.84777 | 372 ft | 3 kts | 262° |
| 2026-05-04 07:39 | -37.67727 | 144.84778 | 372 ft | 0 kts | 262° |
| 2026-05-04 07:42 | -37.67731 | 144.84747 | 372 ft | 8 kts | 261° |
| 2026-05-04 07:42 | -37.67741 | 144.84664 | 371 ft | 12 kts | 261° |
| 2026-05-04 07:43 | -37.67804 | 144.84585 | 370 ft | 16 kts | 225° |
| 2026-05-04 07:43 | -37.67835 | 144.84437 | 363 ft | 20 kts | 262° |
| 2026-05-04 07:43 | -37.67854 | 144.84275 | 361 ft | 13 kts | 262° |
| 2026-05-04 07:43 | -37.67865 | 144.84178 | 359 ft | 0 kts | 261° |
| 2026-05-04 07:44 | -37.67866 | 144.84173 | 359 ft | 2 kts | 261° |
| 2026-05-04 07:44 | -37.67870 | 144.84137 | 363 ft | 6 kts | 261° |
| 2026-05-04 07:44 | -37.67873 | 144.84111 | 361 ft | 0 kts | 261° |
| 2026-05-04 07:44 | -37.67876 | 144.84093 | 357 ft | 11 kts | 261° |
| 2026-05-04 07:45 | -37.67889 | 144.83974 | 355 ft | 7 kts | 273° |
| 2026-05-04 07:45 | -37.67880 | 144.83969 | 361 ft | 0 kts | 350° |
| 2026-05-04 07:45 | -37.67869 | 144.83966 | 360 ft | 11 kts | 351° |
| 2026-05-04 07:46 | -37.67468 | 144.83892 | 369 ft | 102 kts | 352° |
| 2026-05-04 07:46 | -37.66584 | 144.83721 | 679 ft | 141 kts | 353° |
| 2026-05-04 07:46 | -37.65575 | 144.83527 | 1521 ft | 151 kts | 349° |
| 2026-05-04 07:46 | -37.64515 | 144.83323 | 2456 ft | 158 kts | 346° |
| 2026-05-04 07:47 | -37.63383 | 144.83102 | 2888 ft | 175 kts | 345° |
| 2026-05-04 07:47 | -37.62096 | 144.82846 | 3231 ft | 200 kts | 345° |
| 2026-05-04 07:47 | -37.60636 | 144.82556 | 3725 ft | 223 kts | 346° |
| 2026-05-04 07:49 | -37.48993 | 144.88406 | 9789 ft | 283 kts | 19° |
| 2026-05-04 07:49 | -37.47188 | 144.89506 | 10370 ft | 297 kts | 19° |
| 2026-05-04 07:49 | -37.45279 | 144.90754 | 10638 ft | 324 kts | 26° |
| 2026-05-04 07:50 | -37.43421 | 144.92560 | 10975 ft | 350 kts | 39° |
| 2026-05-04 07:50 | -37.41831 | 144.94897 | 11589 ft | 362 kts | 50° |
| 2026-05-04 07:50 | -37.40378 | 144.97511 | 12288 ft | 367 kts | 51° |
| 2026-05-04 07:50 | -37.38893 | 145.00154 | 13002 ft | 371 kts | 50° |
| 2026-05-04 07:51 | -37.37389 | 145.02808 | 13757 ft | 375 kts | 50° |
| 2026-05-04 07:51 | -37.35861 | 145.05490 | 14402 ft | 379 kts | 50° |
| 2026-05-04 07:51 | -37.34320 | 145.08196 | 15055 ft | 382 kts | 50° |
| 2026-05-04 07:51 | -37.32769 | 145.10927 | 15701 ft | 386 kts | 50° |
| 2026-05-04 07:52 | -37.31210 | 145.13678 | 16328 ft | 389 kts | 50° |
| 2026-05-04 07:52 | -37.29636 | 145.16455 | 16971 ft | 392 kts | 50° |
| 2026-05-04 07:52 | -37.28049 | 145.19257 | 17611 ft | 395 kts | 50° |
| 2026-05-04 07:52 | -37.26445 | 145.22085 | 18257 ft | 399 kts | 50° |
| 2026-05-04 07:53 | -37.24831 | 145.24926 | 18819 ft | 402 kts | 50° |
| 2026-05-04 07:54 | -37.13218 | 145.45262 | 22685 ft | 420 kts | 49° |
| 2026-05-04 07:55 | -37.11512 | 145.48246 | 23203 ft | 423 kts | 49° |
| 2026-05-04 07:55 | -37.09813 | 145.51215 | 23669 ft | 426 kts | 48° |
| 2026-05-04 07:55 | -37.08080 | 145.54235 | 24112 ft | 428 kts | 47° |
| 2026-05-04 07:55 | -37.06339 | 145.57262 | 24545 ft | 429 kts | 47° |
| 2026-05-04 07:56 | -37.04590 | 145.60296 | 24966 ft | 431 kts | 46° |
| 2026-05-04 07:56 | -37.02828 | 145.63351 | 25365 ft | 434 kts | 46° |
| 2026-05-04 07:56 | -37.01056 | 145.66420 | 25737 ft | 437 kts | 46° |
| 2026-05-04 07:56 | -36.99272 | 145.69507 | 26129 ft | 439 kts | 45° |
| 2026-05-04 07:57 | -36.97478 | 145.72616 | 26508 ft | 442 kts | 45° |
| 2026-05-04 07:57 | -36.95672 | 145.75745 | 26902 ft | 445 kts | 45° |
| 2026-05-04 07:57 | -36.93852 | 145.78889 | 27288 ft | 448 kts | 45° |
| 2026-05-04 07:57 | -36.92048 | 145.81999 | 27726 ft | 449 kts | 44° |
| 2026-05-04 07:58 | -36.90213 | 145.85165 | 28150 ft | 451 kts | 44° |
| 2026-05-04 07:58 | -36.88365 | 145.88353 | 28509 ft | 454 kts | 44° |
| 2026-05-04 07:58 | -36.86500 | 145.91562 | 28712 ft | 461 kts | 44° |
| 2026-05-04 07:58 | -36.84595 | 145.94832 | 28850 ft | 469 kts | 44° |
| 2026-05-04 07:59 | -36.82661 | 145.98145 | 28997 ft | 476 kts | 44° |
| 2026-05-04 07:59 | -36.80705 | 146.01499 | 29310 ft | 479 kts | 44° |
| 2026-05-04 07:59 | -36.78772 | 146.04822 | 29700 ft | 480 kts | 45° |
| 2026-05-04 07:59 | -36.76807 | 146.08202 | 30069 ft | 482 kts | 45° |
| 2026-05-04 08:00 | -36.74833 | 146.11590 | 30403 ft | 484 kts | 45° |
| 2026-05-04 08:00 | -36.72849 | 146.14982 | 30740 ft | 485 kts | 45° |
| 2026-05-04 08:00 | -36.70860 | 146.18375 | 31107 ft | 485 kts | 45° |
| 2026-05-04 08:02 | -36.56905 | 146.42117 | 33787 ft | 488 kts | 45° |
| 2026-05-04 08:02 | -36.54894 | 146.45520 | 34158 ft | 488 kts | 45° |
| 2026-05-04 08:02 | -36.52883 | 146.48926 | 34487 ft | 489 kts | 45° |
| 2026-05-04 08:03 | -36.50873 | 146.52329 | 34811 ft | 489 kts | 45° |
| 2026-05-04 08:03 | -36.48855 | 146.55742 | 35119 ft | 490 kts | 45° |
| 2026-05-04 08:03 | -36.46829 | 146.59158 | 35416 ft | 492 kts | 45° |
| 2026-05-04 08:03 | -36.44820 | 146.62544 | 35714 ft | 493 kts | 45° |
| 2026-05-04 08:04 | -36.42786 | 146.65972 | 36022 ft | 494 kts | 45° |
| 2026-05-04 08:04 | -36.40743 | 146.69410 | 36328 ft | 495 kts | 45° |
| 2026-05-04 08:04 | -36.38694 | 146.72854 | 36603 ft | 497 kts | 45° |
| 2026-05-04 08:04 | -36.36630 | 146.76314 | 36763 ft | 501 kts | 46° |
| 2026-05-04 08:05 | -36.34553 | 146.79799 | 36956 ft | 503 kts | 46° |
| 2026-05-04 08:05 | -36.32474 | 146.83291 | 37029 ft | 504 kts | 46° |
| 2026-05-04 08:05 | -36.28341 | 146.90221 | 37033 ft | 502 kts | 45° |
| 2026-05-04 08:06 | -36.24183 | 146.97163 | 37035 ft | 502 kts | 45° |
| 2026-05-04 08:06 | -36.20020 | 147.04094 | 37036 ft | 502 kts | 45° |
| 2026-05-04 08:08 | -36.03366 | 147.31703 | 37037 ft | 501 kts | 44° |
| 2026-05-04 08:11 | -35.84564 | 147.62629 | 37073 ft | 501 kts | 44° |
| 2026-05-04 08:11 | -35.78302 | 147.72867 | 37054 ft | 501 kts | 44° |
| 2026-05-04 08:12 | -35.74100 | 147.79703 | 37060 ft | 501 kts | 44° |
| 2026-05-04 08:12 | -35.69896 | 147.86542 | 37071 ft | 501 kts | 44° |
| 2026-05-04 08:13 | -35.65691 | 147.93370 | 37045 ft | 501 kts | 44° |
| 2026-05-04 08:13 | -35.61474 | 148.00191 | 37051 ft | 501 kts | 44° |
| 2026-05-04 08:14 | -35.57281 | 148.06969 | 37085 ft | 502 kts | 44° |
| 2026-05-04 08:16 | -35.41068 | 148.33071 | 37093 ft | 502 kts | 44° |
| 2026-05-04 08:16 | -35.36825 | 148.39870 | 37091 ft | 502 kts | 44° |
| 2026-05-04 08:17 | -35.31897 | 148.47769 | 37062 ft | 502 kts | 43° |
| 2026-05-04 08:17 | -35.28338 | 148.53456 | 37062 ft | 502 kts | 44° |
| 2026-05-04 08:19 | -35.11308 | 148.80452 | 37061 ft | 502 kts | 43° |
| 2026-05-04 08:20 | -35.07042 | 148.87197 | 37073 ft | 501 kts | 44° |
| 2026-05-04 08:20 | -35.02811 | 148.93885 | 37048 ft | 501 kts | 43° |
| 2026-05-04 08:21 | -34.98541 | 149.00617 | 37059 ft | 501 kts | 43° |
| 2026-05-04 08:21 | -34.94266 | 149.07326 | 37066 ft | 501 kts | 43° |
| 2026-05-04 08:22 | -34.89992 | 149.14025 | 37077 ft | 500 kts | 43° |
| 2026-05-04 08:24 | -34.73126 | 149.40993 | 37090 ft | 513 kts | 54° |
| 2026-05-04 08:24 | -34.69781 | 149.48691 | 37087 ft | 515 kts | 54° |
| 2026-05-04 08:25 | -34.66426 | 149.56388 | 37087 ft | 515 kts | 54° |
| 2026-05-04 08:25 | -34.63088 | 149.64018 | 37062 ft | 515 kts | 54° |
| 2026-05-04 08:27 | -34.49585 | 149.94693 | 37046 ft | 516 kts | 54° |
| 2026-05-04 08:28 | -34.46201 | 150.02367 | 37049 ft | 516 kts | 54° |
| 2026-05-04 08:28 | -34.42829 | 150.09970 | 37042 ft | 515 kts | 53° |
| 2026-05-04 08:29 | -34.39420 | 150.17607 | 37024 ft | 515 kts | 53° |
| 2026-05-04 08:31 | -34.25781 | 150.48170 | 37012 ft | 519 kts | 54° |
| 2026-05-04 08:33 | -34.13818 | 150.75053 | 36521 ft | 516 kts | 53° |
| 2026-05-04 08:33 | -34.12137 | 150.78810 | 35844 ft | 516 kts | 53° |
| 2026-05-04 08:35 | -34.00410 | 151.04948 | 28143 ft | 482 kts | 55° |
| 2026-05-04 08:35 | -33.98841 | 151.08451 | 27528 ft | 472 kts | 55° |
| 2026-05-04 08:35 | -33.97279 | 151.11915 | 26811 ft | 469 kts | 55° |
| 2026-05-04 08:35 | -33.95720 | 151.15349 | 26121 ft | 465 kts | 55° |
| 2026-05-04 08:37 | -33.84264 | 151.32760 | 22385 ft | 427 kts | 44° |
| 2026-05-04 08:37 | -33.82368 | 151.35480 | 21804 ft | 421 kts | 44° |
| 2026-05-04 08:37 | -33.80494 | 151.38158 | 21276 ft | 416 kts | 44° |
| 2026-05-04 08:38 | -33.78641 | 151.40801 | 20731 ft | 411 kts | 44° |
| 2026-05-04 08:38 | -33.76807 | 151.43418 | 20209 ft | 407 kts | 44° |
| 2026-05-04 08:38 | -33.74986 | 151.46010 | 19692 ft | 404 kts | 44° |
| 2026-05-04 08:40 | -33.61637 | 151.61418 | 15864 ft | 358 kts | 14° |
| 2026-05-04 08:40 | -33.59257 | 151.62190 | 15324 ft | 352 kts | 10° |
| 2026-05-04 08:40 | -33.56885 | 151.62903 | 15074 ft | 352 kts | 10° |
| 2026-05-04 08:41 | -33.54496 | 151.63626 | 14287 ft | 359 kts | 10° |
| 2026-05-04 08:41 | -33.52063 | 151.64361 | 13605 ft | 359 kts | 11° |
| 2026-05-04 08:41 | -33.49660 | 151.65092 | 13057 ft | 354 kts | 11° |
| 2026-05-04 08:41 | -33.47291 | 151.65816 | 12502 ft | 349 kts | 11° |
| 2026-05-04 08:42 | -33.44955 | 151.66529 | 11961 ft | 344 kts | 11° |
| 2026-05-04 08:42 | -33.42644 | 151.67233 | 11393 ft | 341 kts | 11° |
| 2026-05-04 08:42 | -33.40359 | 151.67940 | 10838 ft | 338 kts | 11° |
| 2026-05-04 08:42 | -33.38163 | 151.68634 | 10573 ft | 318 kts | 11° |
| 2026-05-04 08:43 | -33.36112 | 151.69287 | 10432 ft | 293 kts | 11° |
| 2026-05-04 08:43 | -33.34185 | 151.69898 | 10016 ft | 282 kts | 11° |
| 2026-05-04 08:43 | -33.32307 | 151.70483 | 9856 ft | 278 kts | 11° |
| 2026-05-04 08:43 | -33.30431 | 151.71063 | 9724 ft | 278 kts | 10° |
| 2026-05-04 08:44 | -33.28556 | 151.71641 | 9594 ft | 279 kts | 10° |
| 2026-05-04 08:44 | -33.26679 | 151.72218 | 9462 ft | 277 kts | 11° |
| 2026-05-04 08:46 | -33.14356 | 151.74703 | 7655 ft | 260 kts | 1° |
| 2026-05-04 08:46 | -33.12503 | 151.74883 | 7032 ft | 270 kts | 1° |
| 2026-05-04 08:46 | -33.10693 | 151.75069 | 6886 ft | 252 kts | 1° |
| 2026-05-04 08:46 | -33.08967 | 151.75249 | 6441 ft | 246 kts | 1° |
| 2026-05-04 08:47 | -33.07289 | 151.75421 | 6088 ft | 237 kts | 2° |
| 2026-05-04 08:47 | -33.05681 | 151.75590 | 5787 ft | 227 kts | 2° |
| 2026-05-04 08:47 | -33.04168 | 151.76005 | 5513 ft | 228 kts | 17° |
| 2026-05-04 08:47 | -33.02771 | 151.76924 | 5220 ft | 232 kts | 33° |
| 2026-05-04 08:48 | -33.01562 | 151.78202 | 4925 ft | 232 kts | 38° |
| 2026-05-04 08:48 | -33.00371 | 151.79500 | 4618 ft | 232 kts | 38° |
| 2026-05-04 08:48 | -32.99199 | 151.80774 | 4313 ft | 224 kts | 38° |
| 2026-05-04 08:48 | -32.98076 | 151.81993 | 4043 ft | 213 kts | 38° |
| 2026-05-04 08:49 | -32.97014 | 151.83151 | 3801 ft | 200 kts | 38° |
| 2026-05-04 08:50 | -32.90937 | 151.87741 | 2526 ft | 145 kts | 19° |
| 2026-05-04 08:50 | -32.90014 | 151.88178 | 2470 ft | 141 kts | 17° |
| 2026-05-04 08:51 | -32.89112 | 151.88602 | 2165 ft | 138 kts | 17° |
| 2026-05-04 08:51 | -32.88212 | 151.89002 | 1869 ft | 138 kts | 17° |
| 2026-05-04 08:51 | -32.87314 | 151.89363 | 1551 ft | 135 kts | 15° |
| 2026-05-04 08:51 | -32.86416 | 151.89612 | 1489 ft | 134 kts | 2° |
| 2026-05-04 08:52 | -32.85497 | 151.89522 | 1442 ft | 135 kts | 348° |
| 2026-05-04 08:52 | -32.84622 | 151.89135 | 1354 ft | 135 kts | 336° |
| 2026-05-04 08:52 | -32.83783 | 151.88629 | 1183 ft | 136 kts | 333° |
| 2026-05-04 08:52 | -32.82990 | 151.87996 | 964 ft | 139 kts | 328° |
| 2026-05-04 08:53 | -32.82270 | 151.87221 | 686 ft | 141 kts | 318° |
| 2026-05-04 08:54 | -32.79286 | 151.83060 | 34 ft | 25 kts | 311° |
| 2026-05-04 08:55 | -32.79182 | 151.83033 | 36 ft | 14 kts | 36° |
| 2026-05-04 08:55 | -32.79135 | 151.83077 | 36 ft | 9 kts | 39° |
| 2026-05-04 08:55 | -32.79125 | 151.83123 | 36 ft | 6 kts | 129° |
| 2026-05-04 08:55 | -32.79162 | 151.83174 | 35 ft | 10 kts | 130° |
| 2026-05-04 08:57 | -32.79747 | 151.83982 | 30 ft | 15 kts | 152° |
| 2026-05-04 09:01 | -32.80340 | 151.84001 | 29 ft | 0 kts | 247° |